sensor_id;sensor_type;location;lat;lon;timestamp;P1;durP1;ratioP1;P2;durP2;ratioP2
287;SDS011;128;48.770;9.198;2023-06-24T00:00:38;8.07;;;4.63;;
287;SDS011;128;48.770;9.198;2023-06-24T00:03:04;8.57;;;4.40;;
287;SDS011;128;48.770;9.198;2023-06-24T00:05:32;7.37;;;4.00;;
287;SDS011;128;48.770;9.198;2023-06-24T00:07:58;7.63;;;4.70;;
287;SDS011;128;48.770;9.198;2023-06-24T00:10:27;6.23;;;4.63;;
287;SDS011;128;48.770;9.198;2023-06-24T00:12:53;9.30;;;4.80;;
287;SDS011;128;48.770;9.198;2023-06-24T00:15:19;6.93;;;4.20;;
287;SDS011;128;48.770;9.198;2023-06-24T00:17:45;7.37;;;4.70;;
287;SDS011;128;48.770;9.198;2023-06-24T00:20:11;7.93;;;4.50;;
287;SDS011;128;48.770;9.198;2023-06-24T00:22:39;9.47;;;4.30;;
287;SDS011;128;48.770;9.198;2023-06-24T00:25:09;10.63;;;5.40;;
287;SDS011;128;48.770;9.198;2023-06-24T00:27:35;9.10;;;4.80;;
287;SDS011;128;48.770;9.198;2023-06-24T00:30:01;7.23;;;4.33;;
287;SDS011;128;48.770;9.198;2023-06-24T00:32:27;9.70;;;4.67;;
287;SDS011;128;48.770;9.198;2023-06-24T00:34:53;6.30;;;4.20;;
287;SDS011;128;48.770;9.198;2023-06-24T00:37:21;7.30;;;5.00;;
287;SDS011;128;48.770;9.198;2023-06-24T00:39:47;8.70;;;4.50;;
287;SDS011;128;48.770;9.198;2023-06-24T00:42:13;6.27;;;4.20;;
287;SDS011;128;48.770;9.198;2023-06-24T00:44:39;8.67;;;5.00;;
287;SDS011;128;48.770;9.198;2023-06-24T00:47:05;8.60;;;5.00;;
287;SDS011;128;48.770;9.198;2023-06-24T00:49:33;12.20;;;5.17;;
287;SDS011;128;48.770;9.198;2023-06-24T00:51:59;14.00;;;5.23;;
287;SDS011;128;48.770;9.198;2023-06-24T00:54:25;8.30;;;4.80;;
287;SDS011;128;48.770;9.198;2023-06-24T00:56:55;8.73;;;4.50;;
287;SDS011;128;48.770;9.198;2023-06-24T00:59:21;8.33;;;4.63;;
287;SDS011;128;48.770;9.198;2023-06-24T01:01:48;8.30;;;5.87;;
287;SDS011;128;48.770;9.198;2023-06-24T01:04:14;7.97;;;5.50;;
287;SDS011;128;48.770;9.198;2023-06-24T01:06:41;6.20;;;4.37;;
287;SDS011;128;48.770;9.198;2023-06-24T01:09:08;9.17;;;5.13;;
287;SDS011;128;48.770;9.198;2023-06-24T01:11:34;7.07;;;4.77;;
287;SDS011;128;48.770;9.198;2023-06-24T01:14:00;9.00;;;5.57;;
287;SDS011;128;48.770;9.198;2023-06-24T01:18:52;10.20;;;5.53;;
287;SDS011;128;48.770;9.198;2023-06-24T01:24:17;7.90;;;4.80;;
287;SDS011;128;48.770;9.198;2023-06-24T01:27:01;7.80;;;5.03;;
287;SDS011;128;48.770;9.198;2023-06-24T01:32:33;9.10;;;5.70;;
287;SDS011;128;48.770;9.198;2023-06-24T01:35:02;9.90;;;5.90;;
287;SDS011;128;48.770;9.198;2023-06-24T01:37:37;9.20;;;6.13;;
287;SDS011;128;48.770;9.198;2023-06-24T01:42:36;10.10;;;6.87;;
287;SDS011;128;48.770;9.198;2023-06-24T01:45:03;9.97;;;6.10;;
287;SDS011;128;48.770;9.198;2023-06-24T01:47:30;9.47;;;6.20;;
287;SDS011;128;48.770;9.198;2023-06-24T01:49:57;7.87;;;5.60;;
287;SDS011;128;48.770;9.198;2023-06-24T01:52:25;14.03;;;6.10;;
287;SDS011;128;48.770;9.198;2023-06-24T01:54:52;9.93;;;6.23;;
287;SDS011;128;48.770;9.198;2023-06-24T01:57:19;12.43;;;6.80;;
287;SDS011;128;48.770;9.198;2023-06-24T01:59:46;13.70;;;6.10;;
287;SDS011;128;48.770;9.198;2023-06-24T02:02:14;11.00;;;6.43;;
287;SDS011;128;48.770;9.198;2023-06-24T02:04:40;12.03;;;5.50;;
287;SDS011;128;48.770;9.198;2023-06-24T02:07:06;9.00;;;6.07;;
287;SDS011;128;48.770;9.198;2023-06-24T02:09:33;11.00;;;6.43;;
287;SDS011;128;48.770;9.198;2023-06-24T02:12:03;12.37;;;5.60;;
287;SDS011;128;48.770;9.198;2023-06-24T02:14:29;8.23;;;5.27;;
287;SDS011;128;48.770;9.198;2023-06-24T02:16:56;11.40;;;6.83;;
287;SDS011;128;48.770;9.198;2023-06-24T02:19:27;10.13;;;5.87;;
287;SDS011;128;48.770;9.198;2023-06-24T02:21:54;9.60;;;6.33;;
287;SDS011;128;48.770;9.198;2023-06-24T02:24:21;13.43;;;7.53;;
287;SDS011;128;48.770;9.198;2023-06-24T02:26:47;9.70;;;5.97;;
287;SDS011;128;48.770;9.198;2023-06-24T02:29:13;8.50;;;5.27;;
287;SDS011;128;48.770;9.198;2023-06-24T02:31:40;10.00;;;5.80;;
287;SDS011;128;48.770;9.198;2023-06-24T02:34:06;10.00;;;6.20;;
287;SDS011;128;48.770;9.198;2023-06-24T02:36:31;11.70;;;6.43;;
287;SDS011;128;48.770;9.198;2023-06-24T02:38:58;9.43;;;5.57;;
287;SDS011;128;48.770;9.198;2023-06-24T02:41:24;9.23;;;5.90;;
287;SDS011;128;48.770;9.198;2023-06-24T02:43:49;9.23;;;6.47;;
287;SDS011;128;48.770;9.198;2023-06-24T02:46:16;10.30;;;6.13;;
287;SDS011;128;48.770;9.198;2023-06-24T02:48:42;10.07;;;6.27;;
287;SDS011;128;48.770;9.198;2023-06-24T02:51:09;12.93;;;6.90;;
287;SDS011;128;48.770;9.198;2023-06-24T02:53:36;11.80;;;6.83;;
287;SDS011;128;48.770;9.198;2023-06-24T02:56:03;11.20;;;6.23;;
287;SDS011;128;48.770;9.198;2023-06-24T02:58:29;12.00;;;7.17;;
287;SDS011;128;48.770;9.198;2023-06-24T03:00:58;10.77;;;6.30;;
287;SDS011;128;48.770;9.198;2023-06-24T03:03:24;11.33;;;6.10;;
287;SDS011;128;48.770;9.198;2023-06-24T03:05:51;11.17;;;6.17;;
287;SDS011;128;48.770;9.198;2023-06-24T03:08:18;11.50;;;6.70;;
287;SDS011;128;48.770;9.198;2023-06-24T03:10:44;9.00;;;6.20;;
287;SDS011;128;48.770;9.198;2023-06-24T03:13:10;10.47;;;6.67;;
287;SDS011;128;48.770;9.198;2023-06-24T03:15:36;10.40;;;6.17;;
287;SDS011;128;48.770;9.198;2023-06-24T03:18:02;8.20;;;5.50;;
287;SDS011;128;48.770;9.198;2023-06-24T03:20:28;10.67;;;7.10;;
287;SDS011;128;48.770;9.198;2023-06-24T03:23:01;9.70;;;5.80;;
287;SDS011;128;48.770;9.198;2023-06-24T03:25:26;13.30;;;6.53;;
287;SDS011;128;48.770;9.198;2023-06-24T03:27:52;10.10;;;6.87;;
287;SDS011;128;48.770;9.198;2023-06-24T03:30:18;12.97;;;6.40;;
287;SDS011;128;48.770;9.198;2023-06-24T03:32:44;10.03;;;6.47;;
287;SDS011;128;48.770;9.198;2023-06-24T03:35:11;10.17;;;6.20;;
287;SDS011;128;48.770;9.198;2023-06-24T03:37:37;12.37;;;7.47;;
287;SDS011;128;48.770;9.198;2023-06-24T03:40:03;9.57;;;6.00;;
287;SDS011;128;48.770;9.198;2023-06-24T03:42:29;7.93;;;5.50;;
287;SDS011;128;48.770;9.198;2023-06-24T03:44:55;13.90;;;7.70;;
287;SDS011;128;48.770;9.198;2023-06-24T03:47:21;9.53;;;5.77;;
287;SDS011;128;48.770;9.198;2023-06-24T03:49:47;11.37;;;6.20;;
287;SDS011;128;48.770;9.198;2023-06-24T03:52:13;11.47;;;6.57;;
287;SDS011;128;48.770;9.198;2023-06-24T03:54:39;15.57;;;6.80;;
287;SDS011;128;48.770;9.198;2023-06-24T03:57:05;17.97;;;7.13;;
287;SDS011;128;48.770;9.198;2023-06-24T03:59:31;10.17;;;6.53;;
287;SDS011;128;48.770;9.198;2023-06-24T04:01:57;11.70;;;6.70;;
287;SDS011;128;48.770;9.198;2023-06-24T04:04:23;13.87;;;7.50;;
287;SDS011;128;48.770;9.198;2023-06-24T04:06:49;10.17;;;6.23;;
287;SDS011;128;48.770;9.198;2023-06-24T04:09:15;13.50;;;6.40;;
287;SDS011;128;48.770;9.198;2023-06-24T04:11:41;14.43;;;8.23;;
287;SDS011;128;48.770;9.198;2023-06-24T04:14:07;11.00;;;6.67;;
287;SDS011;128;48.770;9.198;2023-06-24T04:16:34;11.00;;;6.50;;
287;SDS011;128;48.770;9.198;2023-06-24T04:19:00;10.20;;;6.43;;
287;SDS011;128;48.770;9.198;2023-06-24T04:21:26;9.40;;;6.70;;
287;SDS011;128;48.770;9.198;2023-06-24T04:23:52;11.87;;;6.90;;
287;SDS011;128;48.770;9.198;2023-06-24T04:26:18;12.70;;;6.60;;
287;SDS011;128;48.770;9.198;2023-06-24T04:28:44;10.20;;;6.43;;
287;SDS011;128;48.770;9.198;2023-06-24T04:31:10;11.33;;;6.10;;
287;SDS011;128;48.770;9.198;2023-06-24T04:33:36;9.97;;;6.80;;
287;SDS011;128;48.770;9.198;2023-06-24T04:36:02;12.33;;;5.87;;
287;SDS011;128;48.770;9.198;2023-06-24T04:38:28;14.03;;;6.17;;
287;SDS011;128;48.770;9.198;2023-06-24T04:40:54;13.00;;;5.93;;
287;SDS011;128;48.770;9.198;2023-06-24T04:43:20;10.80;;;5.73;;
287;SDS011;128;48.770;9.198;2023-06-24T04:45:46;10.87;;;6.67;;
287;SDS011;128;48.770;9.198;2023-06-24T04:48:12;11.63;;;6.83;;
287;SDS011;128;48.770;9.198;2023-06-24T04:50:38;10.20;;;5.90;;
287;SDS011;128;48.770;9.198;2023-06-24T04:53:05;10.40;;;6.03;;
287;SDS011;128;48.770;9.198;2023-06-24T04:55:31;9.07;;;5.63;;
287;SDS011;128;48.770;9.198;2023-06-24T04:57:57;13.10;;;8.10;;
287;SDS011;128;48.770;9.198;2023-06-24T05:00:23;13.30;;;7.67;;
287;SDS011;128;48.770;9.198;2023-06-24T05:02:49;10.70;;;5.97;;
287;SDS011;128;48.770;9.198;2023-06-24T05:05:15;15.73;;;6.10;;
287;SDS011;128;48.770;9.198;2023-06-24T05:07:41;11.37;;;6.50;;
287;SDS011;128;48.770;9.198;2023-06-24T05:10:07;10.93;;;6.80;;
287;SDS011;128;48.770;9.198;2023-06-24T05:12:33;11.10;;;6.60;;
287;SDS011;128;48.770;9.198;2023-06-24T05:14:59;9.37;;;6.17;;
287;SDS011;128;48.770;9.198;2023-06-24T05:17:25;10.07;;;6.10;;
287;SDS011;128;48.770;9.198;2023-06-24T05:19:51;14.97;;;6.77;;
287;SDS011;128;48.770;9.198;2023-06-24T05:22:17;14.67;;;6.57;;
287;SDS011;128;48.770;9.198;2023-06-24T05:24:43;10.60;;;6.17;;
287;SDS011;128;48.770;9.198;2023-06-24T05:27:08;10.43;;;6.80;;
287;SDS011;128;48.770;9.198;2023-06-24T05:29:34;9.13;;;5.53;;
287;SDS011;128;48.770;9.198;2023-06-24T05:32:00;9.77;;;6.20;;
287;SDS011;128;48.770;9.198;2023-06-24T05:34:28;8.87;;;5.87;;
287;SDS011;128;48.770;9.198;2023-06-24T05:36:54;10.67;;;5.63;;
287;SDS011;128;48.770;9.198;2023-06-24T05:39:20;10.30;;;6.03;;
287;SDS011;128;48.770;9.198;2023-06-24T05:41:46;9.80;;;5.53;;
287;SDS011;128;48.770;9.198;2023-06-24T05:44:13;14.33;;;5.60;;
287;SDS011;128;48.770;9.198;2023-06-24T05:46:39;9.40;;;5.70;;
287;SDS011;128;48.770;9.198;2023-06-24T05:49:05;9.57;;;5.43;;
287;SDS011;128;48.770;9.198;2023-06-24T05:51:31;7.57;;;4.90;;
287;SDS011;128;48.770;9.198;2023-06-24T05:53:57;11.90;;;6.00;;
287;SDS011;128;48.770;9.198;2023-06-24T05:56:23;14.00;;;6.77;;
287;SDS011;128;48.770;9.198;2023-06-24T05:58:49;10.20;;;6.93;;
287;SDS011;128;48.770;9.198;2023-06-24T06:01:15;11.23;;;5.70;;
287;SDS011;128;48.770;9.198;2023-06-24T06:03:41;8.73;;;5.80;;
287;SDS011;128;48.770;9.198;2023-06-24T06:06:07;12.90;;;5.90;;
287;SDS011;128;48.770;9.198;2023-06-24T06:08:33;8.37;;;5.10;;
287;SDS011;128;48.770;9.198;2023-06-24T06:10:59;8.17;;;4.83;;
287;SDS011;128;48.770;9.198;2023-06-24T06:13:27;6.77;;;4.70;;
287;SDS011;128;48.770;9.198;2023-06-24T06:15:53;6.10;;;4.33;;
287;SDS011;128;48.770;9.198;2023-06-24T06:18:19;8.90;;;4.30;;
287;SDS011;128;48.770;9.198;2023-06-24T06:20:45;7.77;;;4.90;;
287;SDS011;128;48.770;9.198;2023-06-24T06:23:10;7.43;;;3.63;;
287;SDS011;128;48.770;9.198;2023-06-24T06:25:36;8.40;;;4.47;;
287;SDS011;128;48.770;9.198;2023-06-24T06:28:03;10.00;;;5.53;;
287;SDS011;128;48.770;9.198;2023-06-24T06:30:29;6.40;;;3.87;;
287;SDS011;128;48.770;9.198;2023-06-24T06:32:54;7.20;;;4.93;;
287;SDS011;128;48.770;9.198;2023-06-24T06:35:20;9.30;;;4.63;;
287;SDS011;128;48.770;9.198;2023-06-24T06:37:46;8.33;;;3.87;;
287;SDS011;128;48.770;9.198;2023-06-24T06:40:17;7.10;;;3.70;;
287;SDS011;128;48.770;9.198;2023-06-24T06:42:43;7.73;;;3.67;;
287;SDS011;128;48.770;9.198;2023-06-24T06:45:09;8.73;;;4.50;;
287;SDS011;128;48.770;9.198;2023-06-24T06:47:35;6.10;;;4.13;;
287;SDS011;128;48.770;9.198;2023-06-24T06:50:01;12.23;;;4.47;;
287;SDS011;128;48.770;9.198;2023-06-24T06:52:27;6.93;;;3.93;;
287;SDS011;128;48.770;9.198;2023-06-24T06:54:53;7.43;;;4.00;;
287;SDS011;128;48.770;9.198;2023-06-24T06:57:19;6.47;;;4.23;;
287;SDS011;128;48.770;9.198;2023-06-24T06:59:45;6.80;;;3.43;;
287;SDS011;128;48.770;9.198;2023-06-24T07:02:11;5.87;;;3.53;;
287;SDS011;128;48.770;9.198;2023-06-24T07:04:37;6.17;;;3.33;;
287;SDS011;128;48.770;9.198;2023-06-24T07:07:03;8.53;;;4.17;;
287;SDS011;128;48.770;9.198;2023-06-24T07:09:29;6.47;;;4.00;;
287;SDS011;128;48.770;9.198;2023-06-24T07:11:55;7.83;;;3.53;;
287;SDS011;128;48.770;9.198;2023-06-24T07:14:21;8.43;;;4.30;;
287;SDS011;128;48.770;9.198;2023-06-24T07:16:46;6.50;;;4.33;;
287;SDS011;128;48.770;9.198;2023-06-24T07:19:12;6.23;;;3.90;;
287;SDS011;128;48.770;9.198;2023-06-24T07:21:38;7.73;;;4.53;;
287;SDS011;128;48.770;9.198;2023-06-24T07:24:04;6.23;;;3.83;;
287;SDS011;128;48.770;9.198;2023-06-24T07:26:30;9.43;;;3.90;;
287;SDS011;128;48.770;9.198;2023-06-24T07:28:57;9.40;;;4.47;;
287;SDS011;128;48.770;9.198;2023-06-24T07:31:23;5.77;;;3.30;;
287;SDS011;128;48.770;9.198;2023-06-24T07:33:49;9.17;;;4.50;;
287;SDS011;128;48.770;9.198;2023-06-24T07:36:15;9.33;;;3.73;;
287;SDS011;128;48.770;9.198;2023-06-24T07:38:41;7.67;;;3.80;;
287;SDS011;128;48.770;9.198;2023-06-24T07:41:07;5.37;;;3.80;;
287;SDS011;128;48.770;9.198;2023-06-24T07:43:33;5.27;;;3.83;;
287;SDS011;128;48.770;9.198;2023-06-24T07:45:59;5.83;;;3.77;;
287;SDS011;128;48.770;9.198;2023-06-24T07:48:25;7.57;;;3.43;;
287;SDS011;128;48.770;9.198;2023-06-24T07:50:51;4.87;;;3.27;;
287;SDS011;128;48.770;9.198;2023-06-24T07:53:17;5.47;;;3.70;;
287;SDS011;128;48.770;9.198;2023-06-24T07:55:43;9.60;;;4.63;;
287;SDS011;128;48.770;9.198;2023-06-24T07:58:09;10.63;;;4.87;;
287;SDS011;128;48.770;9.198;2023-06-24T08:00:34;9.60;;;4.40;;
287;SDS011;128;48.770;9.198;2023-06-24T08:03:00;6.10;;;3.60;;
287;SDS011;128;48.770;9.198;2023-06-24T08:05:27;8.03;;;4.37;;
287;SDS011;128;48.770;9.198;2023-06-24T08:07:53;6.57;;;4.03;;
287;SDS011;128;48.770;9.198;2023-06-24T08:10:19;7.77;;;3.70;;
287;SDS011;128;48.770;9.198;2023-06-24T08:12:45;6.47;;;4.00;;
287;SDS011;128;48.770;9.198;2023-06-24T08:15:11;12.23;;;4.40;;
287;SDS011;128;48.770;9.198;2023-06-24T08:17:37;10.57;;;4.20;;
287;SDS011;128;48.770;9.198;2023-06-24T08:20:03;5.93;;;3.60;;
287;SDS011;128;48.770;9.198;2023-06-24T08:22:29;5.73;;;2.83;;
287;SDS011;128;48.770;9.198;2023-06-24T08:24:55;6.87;;;3.83;;
287;SDS011;128;48.770;9.198;2023-06-24T08:27:21;10.03;;;3.73;;
287;SDS011;128;48.770;9.198;2023-06-24T08:29:47;5.57;;;3.30;;
287;SDS011;128;48.770;9.198;2023-06-24T08:32:13;6.83;;;4.20;;
287;SDS011;128;48.770;9.198;2023-06-24T08:34:39;5.13;;;3.40;;
287;SDS011;128;48.770;9.198;2023-06-24T08:37:05;6.37;;;3.90;;
287;SDS011;128;48.770;9.198;2023-06-24T08:39:31;7.50;;;3.23;;
287;SDS011;128;48.770;9.198;2023-06-24T08:41:57;7.40;;;4.20;;
287;SDS011;128;48.770;9.198;2023-06-24T08:44:23;14.07;;;5.40;;
287;SDS011;128;48.770;9.198;2023-06-24T08:46:49;7.43;;;3.77;;
287;SDS011;128;48.770;9.198;2023-06-24T08:49:17;10.67;;;3.83;;
287;SDS011;128;48.770;9.198;2023-06-24T08:51:46;7.80;;;4.57;;
287;SDS011;128;48.770;9.198;2023-06-24T08:54:15;7.57;;;4.07;;
287;SDS011;128;48.770;9.198;2023-06-24T08:56:41;9.00;;;3.30;;
287;SDS011;128;48.770;9.198;2023-06-24T08:59:08;6.27;;;3.70;;
287;SDS011;128;48.770;9.198;2023-06-24T09:01:34;5.80;;;3.87;;
287;SDS011;128;48.770;9.198;2023-06-24T09:04:00;12.17;;;4.60;;
287;SDS011;128;48.770;9.198;2023-06-24T09:06:26;7.33;;;4.13;;
287;SDS011;128;48.770;9.198;2023-06-24T09:08:53;10.27;;;3.97;;
287;SDS011;128;48.770;9.198;2023-06-24T09:11:22;7.33;;;4.60;;
287;SDS011;128;48.770;9.198;2023-06-24T09:13:53;5.90;;;3.37;;
287;SDS011;128;48.770;9.198;2023-06-24T09:16:19;9.20;;;3.37;;
287;SDS011;128;48.770;9.198;2023-06-24T09:18:48;6.13;;;3.20;;
287;SDS011;128;48.770;9.198;2023-06-24T09:21:24;9.20;;;3.90;;
287;SDS011;128;48.770;9.198;2023-06-24T09:23:52;4.50;;;2.63;;
287;SDS011;128;48.770;9.198;2023-06-24T09:26:18;6.67;;;3.03;;
287;SDS011;128;48.770;9.198;2023-06-24T09:28:47;6.13;;;3.00;;
287;SDS011;128;48.770;9.198;2023-06-24T09:31:14;7.83;;;3.57;;
287;SDS011;128;48.770;9.198;2023-06-24T09:33:40;6.97;;;3.40;;
287;SDS011;128;48.770;9.198;2023-06-24T09:36:06;6.80;;;3.57;;
287;SDS011;128;48.770;9.198;2023-06-24T09:38:35;8.70;;;3.10;;
287;SDS011;128;48.770;9.198;2023-06-24T09:41:02;5.40;;;2.83;;
287;SDS011;128;48.770;9.198;2023-06-24T09:43:29;6.60;;;3.33;;
287;SDS011;128;48.770;9.198;2023-06-24T09:45:55;5.70;;;3.20;;
287;SDS011;128;48.770;9.198;2023-06-24T09:48:23;9.67;;;3.40;;
287;SDS011;128;48.770;9.198;2023-06-24T09:50:49;5.70;;;3.20;;
287;SDS011;128;48.770;9.198;2023-06-24T09:53:15;4.90;;;3.13;;
287;SDS011;128;48.770;9.198;2023-06-24T09:55:41;5.77;;;3.40;;
287;SDS011;128;48.770;9.198;2023-06-24T09:58:11;5.03;;;3.03;;
287;SDS011;128;48.770;9.198;2023-06-24T10:00:37;8.03;;;4.07;;
287;SDS011;128;48.770;9.198;2023-06-24T10:03:03;13.90;;;4.20;;
287;SDS011;128;48.770;9.198;2023-06-24T10:05:29;8.03;;;3.30;;
287;SDS011;128;48.770;9.198;2023-06-24T10:07:55;5.70;;;3.90;;
287;SDS011;128;48.770;9.198;2023-06-24T10:10:21;4.93;;;3.20;;
287;SDS011;128;48.770;9.198;2023-06-24T10:12:47;5.20;;;3.70;;
287;SDS011;128;48.770;9.198;2023-06-24T10:15:13;7.10;;;4.00;;
287;SDS011;128;48.770;9.198;2023-06-24T10:17:40;4.20;;;2.83;;
287;SDS011;128;48.770;9.198;2023-06-24T10:20:06;4.37;;;2.73;;
287;SDS011;128;48.770;9.198;2023-06-24T10:22:32;5.23;;;3.30;;
287;SDS011;128;48.770;9.198;2023-06-24T10:25:02;6.00;;;3.50;;
287;SDS011;128;48.770;9.198;2023-06-24T10:27:28;5.70;;;3.50;;
287;SDS011;128;48.770;9.198;2023-06-24T10:29:57;6.90;;;4.10;;
287;SDS011;128;48.770;9.198;2023-06-24T10:32:39;5.33;;;3.10;;
287;SDS011;128;48.770;9.198;2023-06-24T10:35:05;5.60;;;3.20;;
287;SDS011;128;48.770;9.198;2023-06-24T10:37:32;5.23;;;2.73;;
287;SDS011;128;48.770;9.198;2023-06-24T10:39:58;5.30;;;3.70;;
287;SDS011;128;48.770;9.198;2023-06-24T10:44:51;6.60;;;2.47;;
287;SDS011;128;48.770;9.198;2023-06-24T10:47:17;3.97;;;2.43;;
287;SDS011;128;48.770;9.198;2023-06-24T10:49:43;5.33;;;3.17;;
287;SDS011;128;48.770;9.198;2023-06-24T10:52:09;3.13;;;2.10;;
287;SDS011;128;48.770;9.198;2023-06-24T10:54:39;7.57;;;2.70;;
287;SDS011;128;48.770;9.198;2023-06-24T10:57:06;3.30;;;2.23;;
287;SDS011;128;48.770;9.198;2023-06-24T10:59:35;7.10;;;3.20;;
287;SDS011;128;48.770;9.198;2023-06-24T11:02:01;4.87;;;3.50;;
287;SDS011;128;48.770;9.198;2023-06-24T11:04:27;4.67;;;3.40;;
287;SDS011;128;48.770;9.198;2023-06-24T11:06:59;3.67;;;2.47;;
287;SDS011;128;48.770;9.198;2023-06-24T11:09:25;5.10;;;3.50;;
287;SDS011;128;48.770;9.198;2023-06-24T11:11:51;6.87;;;4.57;;
287;SDS011;128;48.770;9.198;2023-06-24T11:14:19;5.90;;;3.17;;
287;SDS011;128;48.770;9.198;2023-06-24T11:16:45;4.77;;;2.90;;
287;SDS011;128;48.770;9.198;2023-06-24T11:19:11;5.30;;;3.00;;
287;SDS011;128;48.770;9.198;2023-06-24T11:21:37;5.70;;;2.50;;
287;SDS011;128;48.770;9.198;2023-06-24T11:24:03;4.70;;;3.07;;
287;SDS011;128;48.770;9.198;2023-06-24T11:26:29;5.53;;;2.80;;
287;SDS011;128;48.770;9.198;2023-06-24T11:28:55;6.93;;;3.10;;
287;SDS011;128;48.770;9.198;2023-06-24T11:31:25;6.23;;;3.00;;
287;SDS011;128;48.770;9.198;2023-06-24T11:33:51;5.57;;;3.13;;
287;SDS011;128;48.770;9.198;2023-06-24T11:36:17;4.90;;;3.50;;
287;SDS011;128;48.770;9.198;2023-06-24T11:38:45;4.30;;;3.23;;
287;SDS011;128;48.770;9.198;2023-06-24T11:41:11;5.53;;;3.60;;
287;SDS011;128;48.770;9.198;2023-06-24T11:43:37;5.77;;;3.00;;
287;SDS011;128;48.770;9.198;2023-06-24T11:46:03;7.23;;;3.70;;
287;SDS011;128;48.770;9.198;2023-06-24T11:48:29;4.33;;;2.70;;
287;SDS011;128;48.770;9.198;2023-06-24T11:50:55;5.70;;;3.43;;
287;SDS011;128;48.770;9.198;2023-06-24T11:53:31;6.63;;;3.20;;
287;SDS011;128;48.770;9.198;2023-06-24T11:56:07;5.00;;;3.00;;
287;SDS011;128;48.770;9.198;2023-06-24T11:58:34;6.03;;;3.70;;
287;SDS011;128;48.770;9.198;2023-06-24T12:01:03;3.93;;;3.03;;
287;SDS011;128;48.770;9.198;2023-06-24T12:03:29;4.47;;;2.80;;
287;SDS011;128;48.770;9.198;2023-06-24T12:05:57;4.10;;;2.60;;
287;SDS011;128;48.770;9.198;2023-06-24T12:08:23;7.43;;;3.43;;
287;SDS011;128;48.770;9.198;2023-06-24T12:10:49;6.70;;;3.70;;
287;SDS011;128;48.770;9.198;2023-06-24T12:13:15;5.60;;;3.23;;
287;SDS011;128;48.770;9.198;2023-06-24T12:15:42;5.20;;;3.50;;
287;SDS011;128;48.770;9.198;2023-06-24T12:18:08;6.20;;;4.20;;
287;SDS011;128;48.770;9.198;2023-06-24T12:20:34;5.53;;;2.63;;
287;SDS011;128;48.770;9.198;2023-06-24T12:23:01;5.47;;;3.50;;
287;SDS011;128;48.770;9.198;2023-06-24T12:25:28;3.60;;;2.90;;
287;SDS011;128;48.770;9.198;2023-06-24T12:27:54;5.20;;;3.20;;
287;SDS011;128;48.770;9.198;2023-06-24T12:30:20;7.13;;;3.67;;
287;SDS011;128;48.770;9.198;2023-06-24T12:32:49;5.30;;;2.80;;
287;SDS011;128;48.770;9.198;2023-06-24T12:35:15;5.97;;;3.17;;
287;SDS011;128;48.770;9.198;2023-06-24T12:37:41;6.60;;;2.67;;
287;SDS011;128;48.770;9.198;2023-06-24T12:40:07;5.47;;;2.87;;
287;SDS011;128;48.770;9.198;2023-06-24T12:42:33;8.20;;;2.93;;
287;SDS011;128;48.770;9.198;2023-06-24T12:44:59;8.93;;;3.30;;
287;SDS011;128;48.770;9.198;2023-06-24T12:47:25;6.67;;;3.10;;
287;SDS011;128;48.770;9.198;2023-06-24T12:49:51;5.37;;;3.40;;
287;SDS011;128;48.770;9.198;2023-06-24T12:52:18;4.03;;;2.83;;
287;SDS011;128;48.770;9.198;2023-06-24T12:54:44;5.33;;;2.73;;
287;SDS011;128;48.770;9.198;2023-06-24T12:57:11;5.47;;;3.27;;
287;SDS011;128;48.770;9.198;2023-06-24T12:59:37;4.00;;;3.10;;
287;SDS011;128;48.770;9.198;2023-06-24T13:02:03;7.60;;;2.50;;
287;SDS011;128;48.770;9.198;2023-06-24T13:04:29;3.73;;;2.80;;
287;SDS011;128;48.770;9.198;2023-06-24T13:06:56;3.10;;;2.20;;
287;SDS011;128;48.770;9.198;2023-06-24T13:09:22;5.10;;;2.87;;
287;SDS011;128;48.770;9.198;2023-06-24T13:11:48;4.57;;;2.70;;
287;SDS011;128;48.770;9.198;2023-06-24T13:14:14;3.63;;;2.70;;
287;SDS011;128;48.770;9.198;2023-06-24T13:16:40;8.70;;;2.13;;
287;SDS011;128;48.770;9.198;2023-06-24T13:19:06;4.47;;;3.07;;
287;SDS011;128;48.770;9.198;2023-06-24T13:21:32;4.13;;;2.40;;
287;SDS011;128;48.770;9.198;2023-06-24T13:23:58;3.37;;;2.40;;
287;SDS011;128;48.770;9.198;2023-06-24T13:26:24;4.60;;;2.60;;
287;SDS011;128;48.770;9.198;2023-06-24T13:28:50;3.80;;;2.50;;
287;SDS011;128;48.770;9.198;2023-06-24T13:31:17;3.27;;;2.70;;
287;SDS011;128;48.770;9.198;2023-06-24T13:33:43;2.87;;;2.23;;
287;SDS011;128;48.770;9.198;2023-06-24T13:36:11;4.57;;;2.43;;
287;SDS011;128;48.770;9.198;2023-06-24T13:38:50;5.20;;;2.50;;
287;SDS011;128;48.770;9.198;2023-06-24T13:41:16;4.60;;;2.30;;
287;SDS011;128;48.770;9.198;2023-06-24T13:43:42;5.60;;;3.13;;
287;SDS011;128;48.770;9.198;2023-06-24T13:46:08;2.93;;;2.50;;
287;SDS011;128;48.770;9.198;2023-06-24T13:48:34;7.50;;;3.17;;
287;SDS011;128;48.770;9.198;2023-06-24T13:51:00;10.03;;;3.00;;
287;SDS011;128;48.770;9.198;2023-06-24T13:53:26;5.50;;;2.70;;
287;SDS011;128;48.770;9.198;2023-06-24T13:55:51;3.17;;;2.30;;
287;SDS011;128;48.770;9.198;2023-06-24T13:58:17;4.33;;;2.30;;
287;SDS011;128;48.770;9.198;2023-06-24T14:00:43;5.43;;;2.47;;
287;SDS011;128;48.770;9.198;2023-06-24T14:03:10;7.40;;;3.00;;
287;SDS011;128;48.770;9.198;2023-06-24T14:05:36;4.00;;;2.70;;
287;SDS011;128;48.770;9.198;2023-06-24T14:08:02;7.60;;;2.80;;
287;SDS011;128;48.770;9.198;2023-06-24T14:10:28;4.73;;;3.33;;
287;SDS011;128;48.770;9.198;2023-06-24T14:12:54;3.20;;;2.70;;
287;SDS011;128;48.770;9.198;2023-06-24T14:15:20;5.30;;;3.00;;
287;SDS011;128;48.770;9.198;2023-06-24T14:17:46;3.73;;;2.43;;
287;SDS011;128;48.770;9.198;2023-06-24T14:20:12;4.67;;;2.73;;
287;SDS011;128;48.770;9.198;2023-06-24T14:22:38;3.80;;;2.97;;
287;SDS011;128;48.770;9.198;2023-06-24T14:25:04;3.73;;;2.57;;
287;SDS011;128;48.770;9.198;2023-06-24T14:27:30;7.27;;;2.87;;
287;SDS011;128;48.770;9.198;2023-06-24T14:29:56;5.43;;;2.70;;
287;SDS011;128;48.770;9.198;2023-06-24T14:32:22;4.77;;;3.07;;
287;SDS011;128;48.770;9.198;2023-06-24T14:34:48;4.50;;;2.97;;
287;SDS011;128;48.770;9.198;2023-06-24T14:37:14;4.87;;;2.70;;
287;SDS011;128;48.770;9.198;2023-06-24T14:39:40;5.00;;;3.37;;
287;SDS011;128;48.770;9.198;2023-06-24T14:42:06;5.23;;;3.47;;
287;SDS011;128;48.770;9.198;2023-06-24T14:44:32;5.17;;;3.10;;
287;SDS011;128;48.770;9.198;2023-06-24T14:46:58;6.77;;;2.47;;
287;SDS011;128;48.770;9.198;2023-06-24T14:49:24;5.00;;;2.90;;
287;SDS011;128;48.770;9.198;2023-06-24T14:51:51;2.97;;;2.43;;
287;SDS011;128;48.770;9.198;2023-06-24T14:54:17;3.17;;;2.37;;
287;SDS011;128;48.770;9.198;2023-06-24T14:56:43;4.10;;;2.93;;
287;SDS011;128;48.770;9.198;2023-06-24T14:59:10;4.77;;;2.70;;
287;SDS011;128;48.770;9.198;2023-06-24T15:01:36;2.67;;;2.47;;
287;SDS011;128;48.770;9.198;2023-06-24T15:04:02;2.40;;;2.20;;
287;SDS011;128;48.770;9.198;2023-06-24T15:06:28;2.90;;;2.33;;
287;SDS011;128;48.770;9.198;2023-06-24T15:08:54;3.73;;;2.80;;
287;SDS011;128;48.770;9.198;2023-06-24T15:11:20;3.40;;;2.43;;
287;SDS011;128;48.770;9.198;2023-06-24T15:13:46;6.83;;;2.80;;
287;SDS011;128;48.770;9.198;2023-06-24T15:16:12;6.43;;;3.20;;
287;SDS011;128;48.770;9.198;2023-06-24T15:18:47;2.93;;;2.23;;
287;SDS011;128;48.770;9.198;2023-06-24T15:21:14;3.83;;;2.80;;
287;SDS011;128;48.770;9.198;2023-06-24T15:23:41;4.20;;;2.60;;
287;SDS011;128;48.770;9.198;2023-06-24T15:26:07;3.47;;;3.00;;
287;SDS011;128;48.770;9.198;2023-06-24T15:28:33;5.10;;;3.83;;
287;SDS011;128;48.770;9.198;2023-06-24T15:30:59;4.80;;;3.00;;
287;SDS011;128;48.770;9.198;2023-06-24T15:33:25;9.43;;;3.10;;
287;SDS011;128;48.770;9.198;2023-06-24T15:35:52;4.87;;;3.00;;
287;SDS011;128;48.770;9.198;2023-06-24T15:38:18;4.87;;;3.50;;
287;SDS011;128;48.770;9.198;2023-06-24T15:40:44;4.93;;;2.97;;
287;SDS011;128;48.770;9.198;2023-06-24T15:43:10;8.40;;;3.70;;
287;SDS011;128;48.770;9.198;2023-06-24T15:45:36;4.70;;;3.10;;
287;SDS011;128;48.770;9.198;2023-06-24T15:48:05;6.17;;;3.10;;
287;SDS011;128;48.770;9.198;2023-06-24T15:50:31;5.03;;;3.10;;